Time;durP1;ratioP1;P1;durP2;ratioP2;P2;SDS_P1;SDS_P2;PMS_P1;PMS_P2;Temp;Humidity;BMP_temperature;BMP_pressure;BME280_temperature;BME280_humidity;BME280_pressure;Samples;Min_cycle;Max_cycle;Signal;HPM_P1;HPM_P2
2023/04/03 00:00:34;;;;;;;6.72;3.42;;;;;;;2.66;100.00;94334.28;5048548;28;20036;-59
2023/04/03 00:03:01;;;;;;;7.17;4.13;;;;;;;2.68;100.00;94332.75;5049119;28;20040;-59
2023/04/03 00:05:28;;;;;;;5.10;3.10;;;;;;;2.50;100.00;94337.78;5049449;28;20036;-59
2023/04/03 00:07:54;;;;;;;5.65;3.75;;;;;;;2.30;100.00;94334.25;5049242;28;20535;-59
2023/04/03 00:10:22;;;;;;;5.60;3.55;;;;;;;2.48;100.00;94336.59;5048769;28;20098;-59
2023/04/03 00:12:48;;;;;;;5.97;3.60;;;;;;;2.28;100.00;94343.88;5049133;28;20044;-59
2023/04/03 00:15:15;;;;;;;6.60;4.00;;;;;;;2.42;100.00;94338.00;5048700;28;20390;-59
2023/04/03 00:17:42;;;;;;;6.18;3.88;;;;;;;2.49;100.00;94338.91;5048980;28;20033;-59
2023/04/03 00:20:09;;;;;;;6.90;3.88;;;;;;;2.60;100.00;94348.09;5048910;28;20052;-59
2023/04/03 00:22:36;;;;;;;7.03;3.90;;;;;;;2.47;100.00;94345.84;5048736;28;20037;-59
2023/04/03 00:25:03;;;;;;;6.13;3.58;;;;;;;2.58;100.00;94344.16;5049102;28;20070;-59
2023/04/03 00:27:30;;;;;;;5.33;3.30;;;;;;;2.54;100.00;94346.00;5048813;28;21484;-59
2023/04/03 00:29:57;;;;;;;5.45;3.10;;;;;;;2.53;100.00;94342.50;5048966;28;20432;-59
2023/04/03 00:32:23;;;;;;;5.30;2.80;;;;;;;2.50;100.00;94343.22;5048599;28;20111;-59
2023/04/03 00:34:50;;;;;;;4.18;2.38;;;;;;;2.34;100.00;94343.25;5048835;28;20097;-59
2023/04/03 00:37:17;;;;;;;4.85;3.05;;;;;;;2.57;100.00;94345.28;5048551;28;20032;-59
2023/04/03 00:39:43;;;;;;;5.87;3.07;;;;;;;2.55;100.00;94350.28;5054342;28;20409;-59
2023/04/03 00:42:10;;;;;;;6.25;3.65;;;;;;;2.56;100.00;94349.16;5047377;28;20045;-60
2023/04/03 00:44:37;;;;;;;5.70;3.47;;;;;;;2.54;100.00;94356.84;5048089;28;20363;-59
2023/04/03 00:47:06;;;;;;;6.07;3.58;;;;;;;2.28;100.00;94346.59;5048475;28;20465;-60
2023/04/03 00:49:34;;;;;;;6.80;4.38;;;;;;;2.29;100.00;94351.63;5048328;28;20036;-60
2023/04/03 00:52:02;;;;;;;6.60;3.73;;;;;;;2.48;100.00;94350.13;5048346;28;20033;-59
2023/04/03 00:54:29;;;;;;;7.75;4.47;;;;;;;2.39;100.00;94350.31;5057833;28;20050;-60
2023/04/03 00:56:57;;;;;;;8.35;4.43;;;;;;;2.23;100.00;94346.84;5033650;28;20041;-60
2023/04/03 00:59:30;;;;;;;8.13;4.82;;;;;;;2.12;100.00;94357.44;5048258;28;20039;-59
2023/04/03 01:01:56;;;;;;;8.02;4.75;;;;;;;2.30;100.00;94352.44;5048257;28;20050;-59
2023/04/03 01:04:31;;;;;;;7.47;4.57;;;;;;;2.20;100.00;94351.03;5038081;28;20482;-59
2023/04/03 01:07:04;;;;;;;8.40;5.03;;;;;;;2.02;100.00;94352.56;5028590;28;20095;-59
2023/04/03 01:09:31;;;;;;;8.50;4.85;;;;;;;2.05;100.00;94354.53;5046209;28;20052;-59
2023/04/03 01:12:22;;;;;;;8.25;5.20;;;;;;;2.22;100.00;94350.69;5047862;28;20057;-59
2023/04/03 01:14:52;;;;;;;9.10;5.85;;;;;;;2.17;100.00;94343.63;5047799;28;20858;-59
2023/04/03 01:17:26;;;;;;;8.97;5.57;;;;;;;2.30;100.00;94347.03;5048211;28;20045;-59
2023/04/03 01:20:12;;;;;;;8.43;5.68;;;;;;;2.13;100.00;94346.25;5047927;28;20440;-59
2023/04/03 01:22:52;;;;;;;9.75;6.30;;;;;;;2.01;100.00;94349.03;5047668;28;21486;-59
2023/04/03 01:25:18;;;;;;;11.02;6.07;;;;;;;2.24;100.00;94349.22;5035079;28;20037;-59
2023/04/03 01:27:45;;;;;;;9.75;5.95;;;;;;;2.24;100.00;94345.72;5048554;28;20037;-59
2023/04/03 01:30:14;;;;;;;10.27;6.10;;;;;;;2.36;100.00;94342.91;5047727;28;20054;-59
2023/04/03 01:32:40;;;;;;;10.43;6.28;;;;;;;2.20;100.00;94348.34;5048285;28;20041;-59
2023/04/03 01:35:09;;;;;;;9.52;6.13;;;;;;;1.95;100.00;94343.13;5047953;28;20037;-60
2023/04/03 01:37:36;;;;;;;11.10;6.32;;;;;;;2.11;100.00;94350.44;5047492;28;20474;-59
2023/04/03 01:40:03;;;;;;;10.43;6.38;;;;;;;1.99;100.00;94349.41;5047563;28;20531;-59
2023/04/03 01:42:30;;;;;;;12.20;6.97;;;;;;;1.87;100.00;94346.00;5047961;28;20090;-59
2023/04/03 01:44:57;;;;;;;10.30;6.03;;;;;;;2.08;100.00;94343.81;5048109;28;20044;-60
2023/04/03 01:47:23;;;;;;;10.65;5.70;;;;;;;2.27;100.00;94334.94;5047907;28;20033;-59
2023/04/03 01:49:50;;;;;;;10.27;5.80;;;;;;;2.17;100.00;94332.78;5048003;28;20099;-59
2023/04/03 01:52:17;;;;;;;9.52;5.82;;;;;;;2.16;100.00;94328.53;5047673;28;20045;-59
2023/04/03 01:54:43;;;;;;;11.13;6.07;;;;;;;2.16;100.00;94326.59;5059912;28;20036;-59
2023/04/03 01:57:10;;;;;;;9.88;5.68;;;;;;;2.13;100.00;94321.91;5034362;28;20041;-59
2023/04/03 01:59:37;;;;;;;9.77;6.25;;;;;;;2.12;100.00;94323.00;5047553;28;22063;-60
2023/04/03 02:02:03;;;;;;;9.70;5.97;;;;;;;2.14;100.00;94315.31;5047660;28;20051;-60
2023/04/03 02:04:30;;;;;;;11.43;6.30;;;;;;;1.98;100.00;94318.06;5040163;28;20049;-59
2023/04/03 02:06:57;;;;;;;9.53;5.93;;;;;;;2.02;100.00;94328.97;5029087;28;20033;-59
2023/04/03 02:09:24;;;;;;;11.15;6.35;;;;;;;1.99;100.00;94326.94;5047264;28;20477;-59
2023/04/03 02:11:50;;;;;;;9.60;5.95;;;;;;;2.22;100.00;94324.41;5047720;28;20045;-59
2023/04/03 02:14:17;;;;;;;9.95;6.10;;;;;;;2.15;100.00;94322.31;5047155;28;20041;-59
2023/04/03 02:16:44;;;;;;;10.27;6.15;;;;;;;2.20;100.00;94324.75;5048247;28;20086;-59
2023/04/03 02:19:10;;;;;;;11.00;7.07;;;;;;;1.69;100.00;94330.13;5047122;28;20053;-57
2023/04/03 02:21:37;;;;;;;10.70;6.25;;;;;;;1.93;100.00;94326.44;5047875;28;20063;-59
2023/04/03 02:24:05;;;;;;;10.90;6.13;;;;;;;2.01;100.00;94316.56;5048150;28;20505;-58
2023/04/03 02:26:31;;;;;;;11.20;6.68;;;;;;;2.11;100.00;94315.25;5050739;28;20037;-58
2023/04/03 02:28:58;;;;;;;11.73;6.97;;;;;;;2.12;100.00;94320.31;5051009;28;20041;-59
2023/04/03 02:31:25;;;;;;;12.27;6.77;;;;;;;2.07;100.00;94311.66;5050859;28;20041;-58
2023/04/03 02:33:51;;;;;;;11.40;6.57;;;;;;;2.03;100.00;94324.34;5051367;28;20029;-58
2023/04/03 02:36:18;;;;;;;12.80;7.47;;;;;;;1.97;100.00;94326.50;5050375;28;20041;-58
2023/04/03 02:38:45;;;;;;;12.25;7.43;;;;;;;1.96;100.00;94328.44;5060419;28;20044;-58
2023/04/03 02:41:12;;;;;;;12.90;7.68;;;;;;;2.00;100.00;94334.72;5054327;28;20036;-58
2023/04/03 02:43:39;;;;;;;12.13;7.27;;;;;;;1.82;100.00;94333.50;5051049;28;20045;-60
2023/04/03 02:46:06;;;;;;;12.25;7.10;;;;;;;1.94;100.00;94329.94;5050394;28;20040;-59
2023/04/03 02:48:34;;;;;;;12.25;7.30;;;;;;;1.88;100.00;94331.34;5050611;28;20470;-59
2023/04/03 02:51:01;;;;;;;11.52;6.75;;;;;;;1.96;100.00;94327.66;5049436;28;20590;-58
2023/04/03 02:53:27;;;;;;;10.90;6.70;;;;;;;1.85;100.00;94323.91;5033982;28;20451;-60
2023/04/03 02:55:54;;;;;;;11.17;6.77;;;;;;;1.94;100.00;94328.00;5057025;28;20049;-59
2023/04/03 02:58:21;;;;;;;9.90;6.20;;;;;;;2.02;100.00;94326.25;5050260;28;20045;-59
2023/04/03 03:00:47;;;;;;;11.48;7.22;;;;;;;1.94;100.00;94325.31;5050735;28;20041;-59
2023/04/03 03:03:14;;;;;;;11.55;7.13;;;;;;;2.09;100.00;94329.13;5048405;28;20045;-59
2023/04/03 03:05:41;;;;;;;12.13;7.18;;;;;;;2.10;100.00;94316.38;5031764;28;20063;-59
2023/04/03 03:08:08;;;;;;;10.83;6.40;;;;;;;2.20;100.00;94324.75;5036517;28;20037;-59
2023/04/03 03:10:34;;;;;;;10.75;6.78;;;;;;;2.12;100.00;94327.66;5050058;28;20420;-59
2023/04/03 03:13:01;;;;;;;11.00;6.85;;;;;;;2.11;100.00;94326.88;5050297;28;20045;-59
2023/04/03 03:15:28;;;;;;;12.02;7.63;;;;;;;2.00;100.00;94323.91;5050069;28;20037;-59
2023/04/03 03:17:55;;;;;;;11.30;7.35;;;;;;;1.64;100.00;94324.19;5050235;28;20098;-59
2023/04/03 03:20:21;;;;;;;11.37;7.13;;;;;;;1.85;100.00;94324.72;5049801;28;20041;-60
2023/04/03 03:22:48;;;;;;;11.57;7.50;;;;;;;1.79;100.00;94323.38;5049175;28;20043;-59
2023/04/03 03:25:15;;;;;;;12.65;7.95;;;;;;;1.66;100.00;94322.69;5049587;28;20036;-59
2023/04/03 03:27:41;;;;;;;12.50;7.47;;;;;;;1.59;100.00;94334.13;5050266;28;20440;-59
2023/04/03 03:30:08;;;;;;;15.40;10.52;;;;;;;1.18;100.00;94329.94;5049824;28;20040;-59
2023/04/03 03:32:35;;;;;;;16.57;9.00;;;;;;;1.30;100.00;94329.09;5049720;28;20047;-59
2023/04/03 03:35:02;;;;;;;16.38;9.50;;;;;;;1.28;100.00;94326.75;5049349;28;20040;-59
2023/04/03 03:37:29;;;;;;;15.80;9.95;;;;;;;1.12;100.00;94328.63;5048868;28;20040;-59
2023/04/03 03:39:56;;;;;;;17.65;10.10;;;;;;;1.03;100.00;94333.38;5050839;28;20041;-59
2023/04/03 03:42:22;;;;;;;17.13;10.63;;;;;;;0.92;100.00;94338.50;5049361;28;20047;-59
2023/04/03 03:44:49;;;;;;;17.60;11.00;;;;;;;1.05;100.00;94340.03;5050148;28;20084;-59
2023/04/03 03:47:16;;;;;;;20.35;11.48;;;;;;;0.55;100.00;94341.31;5049037;28;20400;-59
2023/04/03 03:49:43;;;;;;;18.30;10.48;;;;;;;0.78;100.00;94334.25;5049957;28;20103;-59
2023/04/03 03:52:10;;;;;;;18.83;10.35;;;;;;;0.68;100.00;94337.44;5049254;28;20206;-59
2023/04/03 03:54:37;;;;;;;17.55;10.10;;;;;;;0.57;100.00;94337.16;5059313;28;20793;-59
2023/04/03 03:57:04;;;;;;;17.13;10.27;;;;;;;0.47;100.00;94340.31;5039012;28;20037;-59
2023/04/03 03:59:31;;;;;;;18.00;9.82;;;;;;;0.47;100.00;94337.63;5049315;28;20037;-59
2023/04/03 04:01:58;;;;;;;15.95;9.02;;;;;;;0.57;100.00;94347.16;5049549;28;20032;-59
2023/04/03 04:04:25;;;;;;;14.02;7.60;;;;;;;0.70;100.00;94340.59;5039026;28;20033;-60
2023/04/03 04:06:51;;;;;;;14.35;8.63;;;;;;;1.02;100.00;94335.31;5030859;28;20499;-59
2023/04/03 04:09:18;;;;;;;15.33;8.47;;;;;;;0.91;100.00;94342.34;5048811;28;20036;-59
2023/04/03 04:11:45;;;;;;;13.93;7.70;;;;;;;1.20;100.00;94333.09;5049259;28;20577;-59
2023/04/03 04:14:13;;;;;;;15.80;8.75;;;;;;;0.88;100.00;94329.50;5048866;28;20445;-59
2023/04/03 04:16:39;;;;;;;13.90;7.90;;;;;;;1.08;100.00;94331.22;5049325;28;20261;-59
2023/04/03 04:19:06;;;;;;;15.10;8.57;;;;;;;1.08;100.00;94333.94;5049129;28;20033;-59
2023/04/03 04:21:35;;;;;;;13.20;7.67;;;;;;;1.15;100.00;94334.13;5048809;28;20431;-59
2023/04/03 04:24:01;;;;;;;13.88;7.88;;;;;;;1.06;100.00;94330.78;5049088;28;20049;-59
2023/04/03 04:26:28;;;;;;;16.73;11.18;;;;;;;0.56;100.00;94341.00;5048446;28;20110;-59
2023/04/03 04:28:55;;;;;;;15.98;11.02;;;;;;;0.39;100.00;94339.31;5048896;28;20326;-60
2023/04/03 04:31:21;;;;;;;15.70;10.05;;;;;;;0.53;100.00;94344.34;5048305;28;20044;-59
2023/04/03 04:33:48;;;;;;;14.17;7.93;;;;;;;0.63;100.00;94340.41;5048772;28;20048;-59
2023/04/03 04:36:15;;;;;;;14.45;7.35;;;;;;;0.57;100.00;94342.53;5048429;28;20041;-59
2023/04/03 04:38:42;;;;;;;14.43;8.13;;;;;;;0.55;100.00;94338.63;5057579;28;20534;-59
2023/04/03 04:41:09;;;;;;;13.75;7.50;;;;;;;0.38;100.00;94343.16;5051923;28;20051;-59
2023/04/03 04:43:36;;;;;;;14.98;8.60;;;;;;;0.21;100.00;94340.69;5047988;28;20101;-59
2023/04/03 04:46:11;;;;;;;17.23;8.93;;;;;;;0.18;100.00;94342.16;5048903;28;20075;-60
2023/04/03 04:48:38;;;;;;;14.52;8.20;;;;;;;0.52;100.00;94350.88;5047337;28;20823;-59
2023/04/03 04:51:05;;;;;;;14.05;7.85;;;;;;;0.71;100.00;94352.19;5048821;28;20433;-59
2023/04/03 04:53:32;;;;;;;15.13;8.75;;;;;;;0.15;100.00;94347.44;5049856;28;20068;-59
2023/04/03 04:55:58;;;;;;;14.55;8.18;;;;;;;0.23;100.00;94349.25;5053004;28;20048;-59
2023/04/03 04:58:25;;;;;;;14.40;8.03;;;;;;;0.36;100.00;94348.13;5047990;28;20650;-59
2023/04/03 05:01:03;;;;;;;12.98;7.03;;;;;;;0.68;100.00;94353.66;5047427;28;20105;-59
2023/04/03 05:03:30;;;;;;;13.82;8.38;;;;;;;0.49;100.00;94354.28;5047353;28;20059;-59
2023/04/03 05:05:57;;;;;;;14.23;8.30;;;;;;;0.39;100.00;94358.22;5048353;28;20051;-59
2023/04/03 05:08:24;;;;;;;12.68;8.15;;;;;;;0.29;100.00;94357.91;5047748;28;20056;-59
2023/04/03 05:10:51;;;;;;;13.03;7.23;;;;;;;0.37;100.00;94351.59;5048169;28;20037;-59
2023/04/03 05:13:21;;;;;;;11.68;7.13;;;;;;;0.41;100.00;94362.50;5047548;28;20048;-58
2023/04/03 05:15:47;;;;;;;13.18;8.20;;;;;;;0.25;100.00;94365.88;5048411;28;20041;-59
2023/04/03 05:18:14;;;;;;;14.15;7.70;;;;;;;0.13;100.00;94366.66;5047459;28;20049;-59
2023/04/03 05:20:43;;;;;;;13.63;8.75;;;;;;;-0.05;100.00;94376.13;5048322;28;20078;-59
2023/04/03 05:23:11;;;;;;;13.17;7.20;;;;;;;0.21;100.00;94370.38;5048033;28;20043;-60
2023/04/03 05:25:38;;;;;;;13.20;6.97;;;;;;;0.22;100.00;94379.25;5047515;28;20113;-60
2023/04/03 05:33:45;;;;;;;11.02;7.00;;;;;;;0.17;100.00;94391.84;5308348;23;20064;-58
2023/04/03 05:36:13;;;;;;;9.30;6.20;;;;;;;0.13;100.00;94390.97;5008099;28;20060;-57
2023/04/03 05:38:40;;;;;;;11.10;7.22;;;;;;;-0.08;100.00;94401.88;5008219;28;20049;-58
2023/04/03 05:41:07;;;;;;;8.77;5.53;;;;;;;-0.01;100.00;94391.28;5007999;28;20044;-58
2023/04/03 05:43:34;;;;;;;9.07;5.82;;;;;;;-0.07;100.00;94395.34;5006937;28;20042;-58
2023/04/03 05:46:01;;;;;;;10.55;7.35;;;;;;;-0.34;100.00;94404.88;5007560;28;20100;-58
2023/04/03 05:48:28;;;;;;;12.20;7.30;;;;;;;-0.36;100.00;94409.00;5007112;28;20038;-59
2023/04/03 05:50:55;;;;;;;12.00;6.28;;;;;;;0.06;100.00;94398.03;5007723;28;20054;-58
2023/04/03 05:53:29;;;;;;;10.57;6.32;;;;;;;0.23;100.00;94394.34;5007110;28;20057;-58
2023/04/03 05:55:55;;;;;;;9.05;5.88;;;;;;;0.31;100.00;94396.91;5007931;28;20050;-58
2023/04/03 05:58:22;;;;;;;10.65;6.40;;;;;;;0.25;100.00;94400.97;5006910;28;20202;-58
2023/04/03 06:00:49;;;;;;;9.80;6.00;;;;;;;0.30;100.00;94394.56;5011345;28;20068;-58
2023/04/03 06:03:16;;;;;;;12.82;6.35;;;;;;;0.49;100.00;94397.47;5010811;28;20045;-60
2023/04/03 06:05:43;;;;;;;9.68;5.80;;;;;;;0.71;100.00;94400.81;5011657;28;20042;-59
2023/04/03 06:08:10;;;;;;;9.70;5.90;;;;;;;0.25;100.00;94400.97;5002321;28;20042;-59
2023/04/03 06:10:36;;;;;;;10.32;5.88;;;;;;;0.33;100.00;94397.38;4983199;28;20880;-59
2023/04/03 06:13:04;;;;;;;10.83;6.57;;;;;;;0.36;100.00;94404.81;5005039;28;20044;-59
2023/04/03 06:15:31;;;;;;;10.60;5.95;;;;;;;0.66;100.00;94407.22;4991735;28;20124;-59
2023/04/03 06:17:58;;;;;;;9.52;5.78;;;;;;;0.86;100.00;94402.81;5004323;28;20048;-59
2023/04/03 06:20:25;;;;;;;10.20;6.07;;;;;;;0.94;100.00;94409.19;5010131;28;20137;-60
2023/04/03 06:22:51;;;;;;;11.23;6.47;;;;;;;0.88;100.00;94399.75;5011104;28;20046;-59
2023/04/03 06:25:18;;;;;;;10.77;6.40;;;;;;;1.09;100.00;94408.50;5009111;28;20044;-59
2023/04/03 06:27:45;;;;;;;9.95;5.93;;;;;;;1.02;100.00;94410.97;5010934;28;20488;-59
2023/04/03 06:30:13;;;;;;;12.30;6.88;;;;;;;0.93;100.00;94413.81;5009531;28;20467;-58
2023/04/03 06:32:40;;;;;;;10.75;6.85;;;;;;;1.01;100.00;94414.81;5010638;28;20595;-58
2023/04/03 06:35:08;;;;;;;11.52;6.60;;;;;;;1.12;100.00;94409.72;5010318;28;20081;-58
2023/04/03 06:37:35;;;;;;;10.83;6.70;;;;;;;0.70;100.00;94412.75;5010235;28;20140;-59
2023/04/03 06:40:02;;;;;;;11.32;7.20;;;;;;;0.56;100.00;94416.59;5010138;28;20486;-58
2023/04/03 06:42:30;;;;;;;10.90;6.53;;;;;;;0.94;100.00;94418.09;5009796;28;20494;-59
2023/04/03 06:44:57;;;;;;;10.75;6.63;;;;;;;0.99;100.00;94420.56;5010251;28;20064;-59
2023/04/03 06:47:24;;;;;;;11.25;6.50;;;;;;;1.09;100.00;94421.22;5009298;28;20431;-58
2023/04/03 06:49:51;;;;;;;10.80;6.53;;;;;;;1.15;100.00;94423.34;4991159;28;20100;-58
2023/04/03 06:52:17;;;;;;;9.80;6.88;;;;;;;0.60;100.00;94424.78;4989943;28;20046;-58
2023/04/03 06:54:44;;;;;;;11.07;6.28;;;;;;;0.70;100.00;94431.66;4990295;28;20043;-59
2023/04/03 06:57:11;;;;;;;11.23;6.32;;;;;;;0.83;100.00;94435.91;4989569;28;20050;-57
2023/04/03 06:59:38;;;;;;;10.52;6.18;;;;;;;0.55;100.00;94427.75;4990336;28;20167;-58
2023/04/03 07:02:04;;;;;;;9.27;5.87;;;;;;;0.68;100.00;94431.97;4991814;28;20498;-58
2023/04/03 07:04:31;;;;;;;8.82;5.70;;;;;;;1.28;100.00;94415.19;5000675;28;20095;-58
2023/04/03 07:06:58;;;;;;;9.35;5.60;;;;;;;1.62;100.00;94413.78;4992237;28;20058;-59
2023/04/03 07:09:25;;;;;;;10.20;5.75;;;;;;;1.66;100.00;94411.19;4989191;28;20104;-58
2023/04/03 07:11:52;;;;;;;11.25;6.10;;;;;;;1.59;100.00;94407.16;4992395;28;20042;-58
2023/04/03 07:14:18;;;;;;;10.80;5.63;;;;;;;1.97;100.00;94405.00;4995593;28;20054;-58
2023/04/03 07:16:45;;;;;;;9.73;5.40;;;;;;;2.27;100.00;94399.94;5009336;28;20042;-59
2023/04/03 07:19:12;;;;;;;8.00;5.18;;;;;;;2.08;100.00;94397.94;5008487;28;20046;-58
2023/04/03 07:21:38;;;;;;;8.10;4.78;;;;;;;2.06;100.00;94402.94;5009275;28;20052;-58
2023/04/03 07:24:05;;;;;;;9.80;5.60;;;;;;;1.99;100.00;94413.56;5009318;28;20141;-58
2023/04/03 07:26:35;;;;;;;8.47;4.93;;;;;;;2.32;100.00;94404.31;5009332;28;20045;-59
2023/04/03 07:29:02;;;;;;;7.78;4.70;;;;;;;2.33;100.00;94405.88;5009762;28;20037;-59
2023/04/03 07:31:29;;;;;;;9.85;5.70;;;;;;;2.46;100.00;94409.28;5009202;28;20052;-58
2023/04/03 07:33:55;;;;;;;6.70;4.60;;;;;;;2.47;98.81;94403.50;5009436;28;20054;-59
2023/04/03 07:36:22;;;;;;;8.18;4.78;;;;;;;2.40;97.84;94406.84;4991689;28;20078;-59
2023/04/03 07:38:49;;;;;;;6.77;4.43;;;;;;;2.30;100.00;94420.13;5009974;28;20038;-59
2023/04/03 07:41:19;;;;;;;6.60;3.75;;;;;;;2.32;97.62;94410.53;5008410;28;20076;-59
2023/04/03 07:43:46;;;;;;;7.07;4.75;;;;;;;2.23;98.57;94414.53;5009128;28;20050;-59
2023/04/03 07:46:13;;;;;;;7.25;4.20;;;;;;;2.18;96.45;94421.00;5008679;28;20114;-59
2023/04/03 07:48:40;;;;;;;6.60;4.65;;;;;;;2.54;94.99;94424.59;5009641;28;20504;-59
2023/04/03 07:51:07;;;;;;;7.63;5.00;;;;;;;2.57;96.45;94424.63;5009038;28;20045;-59
2023/04/03 07:53:34;;;;;;;7.10;5.18;;;;;;;0.98;100.00;94424.38;5008991;28;20157;-59
2023/04/03 07:56:02;;;;;;;7.25;4.50;;;;;;;2.03;100.00;94419.84;5009178;28;20057;-59
2023/04/03 07:58:29;;;;;;;8.30;5.00;;;;;;;1.71;100.00;94419.84;5008406;28;20466;-60
2023/04/03 08:00:57;;;;;;;7.00;4.63;;;;;;;2.05;100.00;94436.53;5009176;28;20046;-59
2023/04/03 08:03:24;;;;;;;6.53;4.10;;;;;;;2.27;99.18;94424.31;4990712;28;20046;-59
2023/04/03 08:05:51;;;;;;;8.07;4.40;;;;;;;2.64;97.37;94434.88;5009040;28;20033;-59
2023/04/03 08:08:21;;;;;;;7.20;4.32;;;;;;;2.34;100.00;94429.13;5007853;28;20167;-59
2023/04/03 08:10:53;;;;;;;6.72;4.30;;;;;;;2.50;98.46;94439.97;5009106;28;20092;-59
2023/04/03 08:13:20;;;;;;;7.88;4.22;;;;;;;2.54;99.22;94430.00;5008045;28;20437;-59
2023/04/03 08:15:47;;;;;;;7.07;4.27;;;;;;;2.96;93.58;94435.59;5008974;28;20042;-59
2023/04/03 08:18:15;;;;;;;6.82;4.50;;;;;;;3.02;90.12;94436.13;5008269;28;20068;-59
2023/04/03 08:20:42;;;;;;;8.45;4.53;;;;;;;2.82;92.10;94435.28;4987912;28;20038;-59
2023/04/03 08:23:09;;;;;;;7.53;4.75;;;;;;;3.29;93.29;94434.34;4988456;28;20052;-59
2023/04/03 08:25:40;;;;;;;7.40;4.40;;;;;;;3.45;90.44;94430.78;4988435;28;20750;-59
2023/04/03 08:28:08;;;;;;;7.53;4.20;;;;;;;2.81;94.86;94431.00;4988849;28;20050;-59
2023/04/03 08:30:34;;;;;;;7.30;4.82;;;;;;;2.60;94.47;94434.78;4988619;28;20108;-59
2023/04/03 08:33:02;;;;;;;7.32;3.85;;;;;;;2.82;96.23;94431.75;4988552;28;20050;-59
2023/04/03 08:35:29;;;;;;;7.28;4.07;;;;;;;2.90;93.79;94425.38;4988119;28;20061;-59
2023/04/03 08:37:56;;;;;;;6.07;4.25;;;;;;;2.50;95.83;94429.13;4985305;28;20047;-59
2023/04/03 08:40:24;;;;;;;7.90;4.97;;;;;;;1.73;100.00;94433.81;4975132;28;20053;-59
2023/04/03 08:42:53;;;;;;;7.25;4.60;;;;;;;2.57;100.00;94432.00;4987921;28;20053;-59
2023/04/03 08:45:50;;;;;;;7.65;4.65;;;;;;;3.10;95.35;94432.41;4987846;28;20050;-59
2023/04/03 08:48:27;;;;;;;10.60;4.80;;;;;;;2.95;94.46;94438.66;4988129;28;20049;-59
2023/04/03 08:50:59;;;;;;;7.97;4.90;;;;;;;2.43;100.00;94434.38;4968261;28;20055;-59
2023/04/03 08:53:35;;;;;;;6.70;4.40;;;;;;;2.78;97.94;94434.41;4970350;28;20233;-59
2023/04/03 08:56:08;;;;;;;6.15;4.13;;;;;;;3.87;92.13;94428.09;4988578;28;20054;-59
2023/04/03 08:58:49;;;;;;;8.60;5.30;;;;;;;3.95;89.24;94437.94;4973430;28;20038;-59
2023/04/03 09:01:27;;;;;;;7.68;4.90;;;;;;;3.24;90.02;94441.97;4988034;28;20183;-59
2023/04/03 09:03:54;;;;;;;8.88;5.18;;;;;;;2.37;98.03;94450.09;4983759;28;20053;-59
2023/04/03 09:06:29;;;;;;;7.70;4.87;;;;;;;3.06;96.96;94449.72;4963330;28;20069;-60
2023/04/03 09:09:20;;;;;;;7.57;4.60;;;;;;;2.88;100.00;94447.44;4988525;28;20053;-60
2023/04/03 09:12:12;;;;;;;7.82;4.75;;;;;;;3.51;96.19;94440.22;5002254;28;20720;-59
2023/04/03 09:14:41;;;;;;;11.10;5.70;;;;;;;3.69;91.37;94443.28;4987676;28;21797;-59
2023/04/03 09:17:26;;;;;;;9.40;5.55;;;;;;;2.66;97.48;94451.56;4988509;28;20035;-59
2023/04/03 09:20:18;;;;;;;7.83;4.67;;;;;;;3.64;90.70;94444.31;4987570;28;20283;-59
2023/04/03 09:22:48;;;;;;;7.20;4.25;;;;;;;3.04;93.51;94452.00;4987668;28;20042;-59
2023/04/03 09:25:22;;;;;;;9.13;5.60;;;;;;;3.81;90.89;94448.53;4987495;28;20034;-59
2023/04/03 09:27:50;;;;;;;11.02;5.90;;;;;;;3.54;93.71;94451.13;4988392;28;20042;-60
2023/04/03 09:30:24;;;;;;;7.68;5.13;;;;;;;2.77;95.12;94449.09;4987690;28;20084;-59
2023/04/03 09:33:00;;;;;;;7.43;5.00;;;;;;;2.86;98.36;94452.41;4988877;28;20041;-59
2023/04/03 09:35:32;;;;;;;8.48;4.95;;;;;;;3.55;91.46;94441.06;4991541;28;20062;-59
2023/04/03 09:38:13;;;;;;;8.27;5.43;;;;;;;3.38;93.60;94450.41;4985168;28;20479;-59
2023/04/03 09:40:45;;;;;;;6.78;4.70;;;;;;;3.20;95.07;94448.13;4973996;28;20491;-59
2023/04/03 09:43:30;;;;;;;8.40;5.40;;;;;;;4.03;91.52;94435.38;4991767;28;20046;-59
2023/04/03 09:46:32;;;;;;;8.53;5.17;;;;;;;4.13;90.51;94434.78;4991910;28;20045;-59
2023/04/03 09:49:05;;;;;;;7.55;5.00;;;;;;;4.22;88.57;94439.97;4991140;28;21088;-59
2023/04/03 09:51:36;;;;;;;7.50;4.80;;;;;;;4.09;87.84;94436.66;4990979;28;20148;-60
2023/04/03 09:54:32;;;;;;;7.60;4.90;;;;;;;3.77;90.23;94442.28;4991731;28;20039;-59
2023/04/03 09:57:07;;;;;;;9.60;6.20;;;;;;;4.44;88.35;94436.44;4991511;28;20400;-60
2023/04/03 09:59:34;;;;;;;8.47;5.03;;;;;;;4.86;83.42;94438.28;4991369;28;20046;-60
2023/04/03 10:02:21;;;;;;;7.90;5.15;;;;;;;4.57;82.70;94429.69;4991505;28;20049;-60
2023/04/03 10:04:48;;;;;;;7.13;4.82;;;;;;;3.89;85.82;94439.38;5005145;28;20164;-60
2023/04/03 10:07:37;;;;;;;7.07;4.70;;;;;;;3.97;88.09;94440.31;4990954;28;20057;-60
2023/04/03 10:10:25;;;;;;;7.97;5.18;;;;;;;4.49;85.10;94444.31;4991736;28;20049;-60
2023/04/03 10:13:06;;;;;;;7.50;4.93;;;;;;;4.22;84.83;94438.03;4990754;28;20648;-60
2023/04/03 10:15:43;;;;;;;9.02;5.30;;;;;;;3.59;88.78;94450.84;4990635;28;20054;-60
2023/04/03 10:18:52;;;;;;;8.43;5.40;;;;;;;3.65;88.83;94445.13;4991753;28;20066;-59
2023/04/03 10:21:43;;;;;;;9.52;5.65;;;;;;;3.73;89.66;94430.56;4989680;28;20684;-60
2023/04/03 10:24:37;;;;;;;8.80;5.72;;;;;;;3.34;90.57;94439.50;4991377;28;20096;-59
2023/04/03 10:27:30;;;;;;;7.73;5.20;;;;;;;3.43;94.22;94442.00;4979987;28;20723;-59
2023/04/03 10:30:20;;;;;;;8.38;5.68;;;;;;;3.71;93.37;94436.34;4990368;28;20402;-59
2023/04/03 10:32:53;;;;;;;9.18;5.22;;;;;;;4.34;92.60;94434.34;4990093;28;20266;-59
2023/04/03 10:35:31;;;;;;;7.65;5.03;;;;;;;4.29;89.59;94429.22;4990592;28;20407;-60
2023/04/03 10:38:09;;;;;;;8.35;5.60;;;;;;;4.19;87.12;94434.09;4988448;28;20049;-59
2023/04/03 10:41:09;;;;;;;8.43;5.00;;;;;;;3.84;91.57;94436.19;4983805;28;20038;-59
2023/04/03 10:43:49;;;;;;;8.45;5.25;;;;;;;3.04;97.52;94439.25;4989864;28;20119;-59
2023/04/03 10:46:32;;;;;;;8.15;5.45;;;;;;;3.59;94.92;94442.69;4989720;28;20511;-59
2023/04/03 10:49:13;;;;;;;7.85;5.10;;;;;;;3.25;97.39;94443.56;4991169;28;20111;-58
2023/04/03 10:52:25;;;;;;;8.07;5.40;;;;;;;3.55;92.62;94447.28;4990315;28;20942;-59
2023/04/03 10:55:13;;;;;;;8.83;5.40;;;;;;;4.05;89.19;94439.28;4959205;28;20669;-59
2023/04/03 10:57:40;;;;;;;8.77;6.35;;;;;;;4.66;88.15;94429.41;4990045;28;21868;-59
2023/04/03 11:00:18;;;;;;;8.63;6.10;;;;;;;4.68;83.36;94439.94;4990572;28;20310;-59
2023/04/03 11:02:55;;;;;;;7.63;5.03;;;;;;;4.57;83.10;94428.91;4989929;28;20460;-59
2023/04/03 11:05:37;;;;;;;8.82;6.20;;;;;;;4.95;81.47;94419.75;4989838;28;20046;-59
2023/04/03 11:08:31;;;;;;;8.87;5.60;;;;;;;4.51;80.07;94425.72;4972421;28;20392;-59
2023/04/03 11:11:04;;;;;;;8.75;5.50;;;;;;;3.95;84.50;94429.03;4989753;28;21401;-59
2023/04/03 11:13:40;;;;;;;7.00;5.18;;;;;;;3.93;82.62;94426.66;4989674;28;20040;-58
2023/04/03 11:16:07;;;;;;;7.40;5.55;;;;;;;3.91;81.30;94433.59;4990637;28;20054;-58
2023/04/03 11:18:54;;;;;;;6.82;4.97;;;;;;;5.05;77.29;94423.78;4989847;28;20053;-59
2023/04/03 11:21:43;;;;;;;7.70;5.20;;;;;;;5.99;72.02;94412.84;4989844;28;20050;-59
2023/04/03 11:24:21;;;;;;;7.85;4.70;;;;;;;5.00;73.01;94408.56;4979285;28;20179;-59
2023/04/03 11:26:51;;;;;;;7.13;5.03;;;;;;;4.00;72.60;94410.50;4989573;28;20836;-58
2023/04/03 11:29:23;;;;;;;7.80;5.00;;;;;;;4.05;77.00;94403.22;4977119;28;20410;-58
2023/04/03 11:32:13;;;;;;;7.63;4.80;;;;;;;4.54;75.84;94405.94;4989773;28;20068;-59
2023/04/03 11:34:53;;;;;;;6.50;4.30;;;;;;;4.30;75.96;94407.09;4989131;28;20359;-59
2023/04/03 11:37:31;;;;;;;7.18;5.28;;;;;;;3.13;80.00;94412.69;4988801;28;20042;-58
2023/04/03 11:40:03;;;;;;;7.53;5.20;;;;;;;3.31;81.19;94415.00;4979684;28;20053;-59
2023/04/03 11:42:37;;;;;;;7.28;4.80;;;;;;;3.83;77.13;94408.25;4987450;28;20042;-60
2023/04/03 11:45:28;;;;;;;6.00;4.20;;;;;;;3.54;76.55;94407.72;4989546;28;20138;-58
2023/04/03 11:48:26;;;;;;;8.33;4.90;;;;;;;4.16;75.33;94410.38;5002549;28;21837;-58
2023/04/03 11:50:55;;;;;;;7.60;5.65;;;;;;;3.15;74.49;94418.56;4978652;28;20849;-59
2023/04/03 11:53:28;;;;;;;7.00;4.68;;;;;;;3.70;77.19;94404.13;4988883;28;20051;-61